ADDS METAR Data INFO
IDs: Format: Raw Decoded Include TAF

Data at: 1119 UTC 21 Feb 2018

PAVL 201509Z AUTO 18031G35KT 6SM BR SCT014 SCT019 BKN034 M01/M03 A2974 RMK AO2 PK WND 18038/1459 T10061028 TSNO PNO $
PAVL 201453Z AUTO 18029G37KT 6SM BR BKN015 OVC035 M01/M02 A2975 RMK AO2 PK WND 18038/1438 UPB25E27SNE25 SLP073 6//// T10061022 56008 TSNO PNO $
PAVL 201439Z AUTO 18030G38KT 7SM SCT009 BKN016 OVC037 M01/M02 A2974 RMK AO2 PK WND 18038/1438 UPB25E27SNE25 T10061022 TSNO PNO $
PAVL 201415Z AUTO 17028G36KT 1SM -SN BR OVC009 M01/M02 A2975 RMK AO2 PK WND 17036/1413 T10061022 TSNO PNO $
PAVL 201400Z AUTO 17029KT 1/2SM SN FZFG BKN010 BKN016 OVC022 M01/M02 A2976 RMK AO2 PK WND 18035/1358 T10111022 TSNO PNO $
PAVL 201353Z AUTO 18030G38KT 1/4SM +SN FZFG SCT008 BKN016 OVC035 M01/M03 A2976 RMK AO2 PK WND 18038/1348 SNB38 SLP077 T10111028 TSNO PNO $
PAVL 201340Z AUTO 17028G34KT 1 3/4SM -SN BR SCT018 BKN030 OVC048 M01/M03 A2976 RMK AO2 PK WND 17036/1329 SNB38 T10061028 TSNO PNO $
PAVL 201300Z AUTO 17026KT 7SM SCT019 BKN031 OVC045 M01/M03 A2977 RMK AO2 PK WND 18031/1258 T10061033 TSNO PNO $
PAVL 201253Z AUTO 17027G34KT 7SM BKN019 BKN031 BKN055 M01/M03 A2977 RMK AO2 PK WND 18034/1228 SLP081 T10061033 TSNO PNO $
PAVL 200053Z AUTO 13025G34KT 1SM BR SCT049 OVC065 M01/M02 A2978 RMK AO2 PK WND 14039/0014 SLP085 T10061017 PWINO FZRANO TSNO PNO $